createdAt,value
2023-02-08T00:01:27.420Z,-2.74
2023-02-08T00:03:56.645Z,-2.72
2023-02-08T00:06:24.754Z,-2.70
2023-02-08T00:08:52.533Z,-2.69
2023-02-08T00:11:21.909Z,-2.75
2023-02-08T00:13:50.174Z,-2.73
2023-02-08T00:16:18.309Z,-2.86
2023-02-08T00:18:46.337Z,-2.84
2023-02-08T00:21:16.890Z,-2.81
2023-02-08T00:23:45.042Z,-2.86
2023-02-08T00:26:13.811Z,-2.84
2023-02-08T00:28:43.419Z,-2.83
2023-02-08T00:31:11.454Z,-2.90
2023-02-08T00:33:41.672Z,-2.86
2023-02-08T00:36:10.337Z,-2.95
2023-02-08T00:38:38.153Z,-2.95
2023-02-08T00:41:06.354Z,-2.89
2023-02-08T00:43:34.534Z,-2.96
2023-02-08T00:46:03.802Z,-2.93
2023-02-08T00:48:31.802Z,-2.94
2023-02-08T00:51:01.305Z,-3.00
2023-02-08T00:53:29.491Z,-3.02
2023-02-08T00:55:57.814Z,-3.10
2023-02-08T00:58:25.791Z,-3.14
2023-02-08T01:00:54.292Z,-3.18
2023-02-08T01:03:24.797Z,-3.22
2023-02-08T01:05:54.056Z,-3.28
2023-02-08T01:08:22.048Z,-3.35
2023-02-08T01:10:49.807Z,-3.36
2023-02-08T01:13:17.712Z,-3.54
2023-02-08T01:15:45.842Z,-3.66
2023-02-08T01:18:13.610Z,-3.73
2023-02-08T01:20:42.676Z,-3.69
2023-02-08T01:23:10.599Z,-3.74
2023-02-08T01:25:38.372Z,-3.77
2023-02-08T01:28:09.344Z,-3.78
2023-02-08T01:30:38.755Z,-3.90
2023-02-08T01:33:06.811Z,-3.89
2023-02-08T01:35:34.525Z,-3.94
2023-02-08T01:38:03.680Z,-3.95
2023-02-08T01:40:31.462Z,-3.88
2023-02-08T01:42:59.664Z,-3.93
2023-02-08T01:45:30.032Z,-3.89
2023-02-08T01:48:07.594Z,-3.97
2023-02-08T01:50:43.748Z,-3.91
2023-02-08T01:53:15.587Z,-3.83
2023-02-08T01:55:48.787Z,-3.83
2023-02-08T01:58:18.656Z,-3.86
2023-02-08T02:00:47.689Z,-3.88
2023-02-08T02:03:18.538Z,-3.99
2023-02-08T02:05:49.970Z,-4.00
2023-02-08T02:08:19.637Z,-4.06
2023-02-08T02:10:49.403Z,-4.05
2023-02-08T02:13:22.051Z,-4.04
2023-02-08T02:15:50.547Z,-4.04
2023-02-08T02:18:24.233Z,-4.08
2023-02-08T02:21:09.822Z,-4.15
2023-02-08T02:24:12.454Z,-4.19
2023-02-08T02:27:10.718Z,-4.14
2023-02-08T02:30:03.836Z,-4.01
2023-02-08T02:32:42.668Z,-4.05
2023-02-08T02:35:18.383Z,-3.93
2023-02-08T02:37:54.562Z,-3.86
2023-02-08T02:40:31.090Z,-3.91
2023-02-08T02:43:24.700Z,-3.95
2023-02-08T02:46:01.559Z,-4.04
2023-02-08T02:48:36.643Z,-4.04
2023-02-08T02:51:10.546Z,-4.05
2023-02-08T02:53:46.117Z,-4.02
2023-02-08T02:56:18.528Z,-3.99
2023-02-08T02:58:46.637Z,-4.02
2023-02-08T03:01:15.061Z,-4.06
2023-02-08T03:03:44.188Z,-4.04
2023-02-08T03:06:15.896Z,-4.04
2023-02-08T03:09:18.975Z,-4.15
2023-02-08T03:11:56.034Z,-4.24
2023-02-08T03:14:40.701Z,-4.19
2023-02-08T03:17:28.823Z,-4.20
2023-02-08T03:20:06.831Z,-4.23
2023-02-08T03:22:43.929Z,-4.21
2023-02-08T03:25:17.876Z,-4.33
2023-02-08T03:27:53.534Z,-4.33
2023-02-08T03:30:26.614Z,-4.38
2023-02-08T03:32:59.924Z,-4.32
2023-02-08T03:35:34.029Z,-4.27
2023-02-08T03:38:05.648Z,-4.25
2023-02-08T03:40:38.765Z,-4.24
2023-02-08T03:43:12.419Z,-4.18
2023-02-08T03:45:43.482Z,-4.31
2023-02-08T03:48:15.073Z,-4.35
2023-02-08T03:50:48.362Z,-4.38
2023-02-08T03:53:18.762Z,-4.42
2023-02-08T03:55:49.223Z,-4.50
2023-02-08T03:58:23.924Z,-4.57
2023-02-08T04:00:58.063Z,-4.63
2023-02-08T04:03:28.232Z,-4.74
2023-02-08T04:05:57.636Z,-4.58
2023-02-08T04:08:27.079Z,-4.73
2023-02-08T04:10:54.983Z,-4.76
2023-02-08T04:13:22.660Z,-4.86
2023-02-08T04:15:50.441Z,-5.00
2023-02-08T04:18:18.227Z,-5.12
2023-02-08T04:20:45.956Z,-5.03
2023-02-08T04:23:14.952Z,-5.04
2023-02-08T04:25:42.647Z,-5.06
2023-02-08T04:28:10.581Z,-5.05
2023-02-08T04:30:38.342Z,-5.07
2023-02-08T04:33:06.111Z,-5.08
2023-02-08T04:35:34.300Z,-5.20
2023-02-08T04:38:02.014Z,-5.08
2023-02-08T04:40:31.459Z,-5.06
2023-02-08T04:42:59.227Z,-5.01
2023-02-08T04:45:28.236Z,-5.05
2023-02-08T04:47:55.900Z,-5.04
2023-02-08T04:50:25.670Z,-4.97
2023-02-08T04:52:53.940Z,-4.94
2023-02-08T04:55:21.701Z,-4.96
2023-02-08T04:57:50.696Z,-5.05
2023-02-08T05:00:19.201Z,-5.09
2023-02-08T05:02:47.640Z,-5.18
2023-02-08T05:05:15.340Z,-5.13
2023-02-08T05:07:43.017Z,-5.10
2023-02-08T05:10:10.984Z,-5.04
2023-02-08T05:12:38.697Z,-5.12
2023-02-08T05:15:08.362Z,-5.07
2023-02-08T05:17:36.763Z,-5.06
2023-02-08T05:20:04.857Z,-5.03
2023-02-08T05:22:32.636Z,-5.06
2023-02-08T05:25:00.445Z,-4.92
2023-02-08T05:27:28.252Z,-4.95
2023-02-08T05:29:58.121Z,-4.93
2023-02-08T05:32:28.230Z,-4.92
2023-02-08T05:34:55.892Z,-5.03
2023-02-08T05:37:23.560Z,-4.93
2023-02-08T05:39:51.314Z,-4.89
2023-02-08T05:42:19.123Z,-4.91
2023-02-08T05:44:46.833Z,-4.88
2023-02-08T05:47:14.720Z,-4.96
2023-02-08T05:49:43.714Z,-5.05
2023-02-08T05:52:11.810Z,-5.09
2023-02-08T05:54:39.742Z,-5.07
2023-02-08T05:57:07.544Z,-5.06
2023-02-08T05:59:35.262Z,-5.09
2023-02-08T06:02:03.012Z,-5.10
2023-02-08T06:04:30.840Z,-5.06
2023-02-08T06:06:59.910Z,-5.04
2023-02-08T06:09:27.930Z,-5.18
2023-02-08T06:11:55.651Z,-5.22
2023-02-08T06:14:23.431Z,-5.17
2023-02-08T06:16:51.184Z,-5.16
2023-02-08T06:19:19.169Z,-5.07
2023-02-08T06:21:47.035Z,-5.21
2023-02-08T06:24:16.914Z,-5.20
2023-02-08T06:26:45.098Z,-5.28
2023-02-08T06:29:12.795Z,-5.16
2023-02-08T06:31:40.599Z,-5.18
2023-02-08T06:34:08.591Z,-5.27
2023-02-08T06:36:36.322Z,-5.21
2023-02-08T06:39:04.261Z,-5.19
2023-02-08T06:41:33.341Z,-5.21
2023-02-08T06:44:02.185Z,-5.28
2023-02-08T06:46:30.496Z,-5.14
2023-02-08T06:49:00.294Z,-5.14
2023-02-08T06:51:28.375Z,-5.22
2023-02-08T06:54:11.426Z,-5.18
2023-02-08T06:56:40.645Z,-5.10
2023-02-08T07:10:21.803Z,-5.23
2023-02-08T07:12:51.025Z,-5.12
2023-02-08T07:15:18.970Z,-5.14
2023-02-08T07:17:46.671Z,-5.06
2023-02-08T07:20:14.736Z,-5.12
2023-02-08T07:22:42.929Z,-5.06
2023-02-08T07:25:11.021Z,-4.85
2023-02-08T07:27:39.212Z,-4.81
2023-02-08T07:30:09.840Z,-4.62
2023-02-08T07:32:37.610Z,-4.69
2023-02-08T07:35:05.578Z,-4.47
2023-02-08T07:37:33.795Z,-4.35
2023-02-08T07:40:01.568Z,-4.28
2023-02-08T07:42:29.305Z,-4.18
2023-02-08T07:44:57.031Z,-4.10
2023-02-08T07:47:26.131Z,-4.20
2023-02-08T07:49:53.900Z,-4.08
2023-02-08T07:52:21.562Z,-3.92
2023-02-08T07:54:52.066Z,-3.93
2023-02-08T07:57:21.826Z,-4.01
2023-02-08T07:59:49.576Z,-3.97
2023-02-08T08:02:17.449Z,-3.98
2023-02-08T08:04:46.494Z,-3.69
2023-02-08T08:07:14.277Z,-3.86
2023-02-08T08:09:42.010Z,-3.83
2023-02-08T08:12:09.760Z,-3.70
2023-02-08T08:14:37.516Z,-3.61
2023-02-08T08:17:05.246Z,-3.51
2023-02-08T08:19:33.039Z,-3.54
2023-02-08T08:22:02.113Z,-3.28
2023-02-08T08:24:31.648Z,-3.00
2023-02-08T08:26:59.343Z,-2.69
2023-02-08T08:29:27.134Z,-2.43
2023-02-08T08:31:54.962Z,-1.84
2023-02-08T08:34:29.563Z,-0.67
2023-02-08T08:36:57.422Z,0.30
2023-02-08T08:39:27.921Z,-0.10
2023-02-08T08:41:58.351Z,-0.60
2023-02-08T08:44:26.317Z,-0.50
2023-02-08T08:46:56.629Z,-0.40
2023-02-08T08:49:24.307Z,0.45
2023-02-08T08:51:52.167Z,0.34
2023-02-08T08:54:20.683Z,-0.28
2023-02-08T08:56:49.741Z,-0.51
2023-02-08T08:59:17.489Z,-0.19
2023-02-08T09:01:45.526Z,0.16
2023-02-08T09:04:13.505Z,0.28
2023-02-08T09:06:41.324Z,0.94
2023-02-08T09:09:09.478Z,1.18
2023-02-08T09:11:37.277Z,1.75
2023-02-08T09:14:06.755Z,2.67
2023-02-08T09:16:34.499Z,1.80
2023-02-08T09:19:02.531Z,0.74
2023-02-08T09:21:30.368Z,1.30
2023-02-08T09:23:58.182Z,2.23
2023-02-08T09:26:26.613Z,2.52
2023-02-08T09:28:54.689Z,2.37
2023-02-08T09:31:26.073Z,2.86
2023-02-08T09:33:55.909Z,3.47
2023-02-08T09:36:25.960Z,2.67
2023-02-08T09:39:00.222Z,2.58
2023-02-08T09:41:42.653Z,2.62
2023-02-08T09:44:22.283Z,3.60
2023-02-08T09:46:58.382Z,3.19
2023-02-08T09:49:32.005Z,2.86
2023-02-08T09:52:04.688Z,2.84
2023-02-08T09:54:37.509Z,2.97
2023-02-08T09:57:10.075Z,2.55
2023-02-08T09:59:41.884Z,3.18
2023-02-08T10:02:20.573Z,3.26
2023-02-08T10:04:58.381Z,2.64
2023-02-08T10:07:26.918Z,2.14
2023-02-08T10:09:57.694Z,2.70
2023-02-08T10:12:34.620Z,3.49
2023-02-08T10:15:12.420Z,4.53
2023-02-08T10:17:59.533Z,6.55
2023-02-08T10:20:38.358Z,6.53
2023-02-08T10:23:23.232Z,5.55
2023-02-08T10:26:12.910Z,6.07
2023-02-08T10:29:09.207Z,6.70
2023-02-08T10:32:03.317Z,6.32
2023-02-08T10:34:44.053Z,7.85
2023-02-08T10:37:18.018Z,7.27
2023-02-08T10:39:54.207Z,6.45
2023-02-08T10:42:27.049Z,6.49
2023-02-08T10:45:18.930Z,4.80
2023-02-08T10:47:54.332Z,5.24
2023-02-08T10:50:30.385Z,5.18
2023-02-08T10:52:58.576Z,5.32
2023-02-08T10:55:26.686Z,4.20
2023-02-08T10:57:58.304Z,4.41
2023-02-08T11:00:28.627Z,3.57
2023-02-08T11:03:00.681Z,4.56
2023-02-08T11:05:36.079Z,5.73
2023-02-08T11:08:08.522Z,4.76
2023-02-08T11:10:37.458Z,4.75
2023-02-08T11:13:15.794Z,5.15
2023-02-08T11:15:48.071Z,4.75
2023-02-08T11:18:23.195Z,4.77
2023-02-08T11:20:54.484Z,5.02
2023-02-08T11:23:26.442Z,4.93
2023-02-08T11:25:55.707Z,4.31
2023-02-08T11:28:30.409Z,4.73
2023-02-08T11:31:03.619Z,4.80
2023-02-08T11:33:31.523Z,4.90
2023-02-08T11:36:07.387Z,4.61
2023-02-08T11:38:37.668Z,4.68
2023-02-08T11:41:15.617Z,4.80
2023-02-08T11:43:44.270Z,4.66
2023-02-08T11:46:12.484Z,5.26
2023-02-08T11:48:45.441Z,6.01
2023-02-08T11:51:24.999Z,5.70
2023-02-08T11:53:52.767Z,5.57
2023-02-08T11:56:23.382Z,4.77
2023-02-08T11:59:00.630Z,5.16
2023-02-08T12:01:30.468Z,5.42
2023-02-08T12:04:00.772Z,5.24
2023-02-08T12:06:58.631Z,6.61
2023-02-08T12:09:43.766Z,6.78
2023-02-08T12:12:23.536Z,7.85
2023-02-08T12:15:01.844Z,8.60
2023-02-08T12:18:02.110Z,6.17
2023-02-08T12:20:48.267Z,6.38
2023-02-08T12:23:35.107Z,5.76
2023-02-08T12:26:19.586Z,6.46
2023-02-08T12:29:02.114Z,6.28
2023-02-08T12:31:43.846Z,7.08
2023-02-08T12:34:43.614Z,7.39
2023-02-08T12:37:41.269Z,7.95
2023-02-08T12:40:40.258Z,8.64
2023-02-08T12:43:22.822Z,6.73
2023-02-08T12:46:16.286Z,6.80
2023-02-08T12:49:03.453Z,6.60
2023-02-08T12:51:42.029Z,7.24
2023-02-08T12:54:14.082Z,8.07
2023-02-08T12:56:53.643Z,8.07
2023-02-08T12:59:35.268Z,6.59
2023-02-08T13:02:10.454Z,6.37
2023-02-08T13:04:42.195Z,6.80
2023-02-08T13:07:14.248Z,7.17
2023-02-08T13:09:48.185Z,6.87
2023-02-08T13:12:18.946Z,8.05
2023-02-08T13:14:53.453Z,6.51
2023-02-08T13:17:24.890Z,6.00
2023-02-08T13:20:00.383Z,6.59
2023-02-08T13:22:32.509Z,5.84
2023-02-08T13:25:07.672Z,5.60
2023-02-08T13:27:36.093Z,5.88
2023-02-08T13:30:07.481Z,4.85
2023-02-08T13:32:43.944Z,5.38
2023-02-08T13:35:17.213Z,4.97
2023-02-08T13:37:53.309Z,4.85
2023-02-08T13:40:28.197Z,4.73
2023-02-08T13:43:00.913Z,5.04
2023-02-08T13:45:33.009Z,4.93
2023-02-08T13:48:03.125Z,4.54
2023-02-08T13:50:43.935Z,4.38
2023-02-08T13:53:12.562Z,4.26
2023-02-08T13:55:57.485Z,4.02
2023-02-08T13:58:39.618Z,4.28
2023-02-08T14:01:21.605Z,4.32
2023-02-08T14:04:31.011Z,4.05
2023-02-08T14:07:04.707Z,4.49
2023-02-08T14:09:46.243Z,4.37
2023-02-08T14:12:22.946Z,4.71
2023-02-08T14:15:20.373Z,4.52
2023-02-08T14:17:51.568Z,4.38
2023-02-08T14:20:22.519Z,4.45
2023-02-08T14:22:52.686Z,4.48
2023-02-08T14:25:24.219Z,3.99
2023-02-08T14:27:55.104Z,3.80
2023-02-08T14:30:27.664Z,3.58
2023-02-08T14:33:16.186Z,3.74
2023-02-08T14:35:52.819Z,3.38
2023-02-08T14:38:53.061Z,3.18
2023-02-08T14:41:57.123Z,3.32
2023-02-08T14:44:48.872Z,3.12
2023-02-08T14:48:07.472Z,2.83
2023-02-08T14:50:42.139Z,2.88
2023-02-08T14:53:22.461Z,2.81
2023-02-08T14:55:53.436Z,2.70
2023-02-08T14:58:28.819Z,2.60
2023-02-08T15:01:00.355Z,2.62
2023-02-08T15:03:31.484Z,2.34
2023-02-08T15:06:21.841Z,2.23
2023-02-08T15:08:55.134Z,2.31
2023-02-08T15:11:27.628Z,2.12
2023-02-08T15:13:59.927Z,1.95
2023-02-08T15:16:34.101Z,2.03
2023-02-08T15:19:03.825Z,2.19
2023-02-08T15:21:36.663Z,2.00
2023-02-08T15:24:14.010Z,1.80
2023-02-08T15:26:56.650Z,1.89
2023-02-08T15:29:39.051Z,1.81
2023-02-08T15:32:16.372Z,1.66
2023-02-08T15:34:45.994Z,1.78
2023-02-08T15:37:17.608Z,1.87
2023-02-08T15:39:46.863Z,1.80
2023-02-08T15:42:18.766Z,1.75
2023-02-08T15:44:48.091Z,1.65
2023-02-08T15:47:18.884Z,1.43
2023-02-08T15:49:50.778Z,1.50
2023-02-08T15:52:23.103Z,1.47
2023-02-08T15:54:51.994Z,1.31
2023-02-08T15:57:33.287Z,1.19
2023-02-08T16:00:02.027Z,1.22
2023-02-08T16:02:32.008Z,1.17
2023-02-08T16:05:01.920Z,1.22
2023-02-08T16:07:36.005Z,1.10
2023-02-08T16:10:05.487Z,1.02
2023-02-08T16:12:33.683Z,1.12
2023-02-08T16:15:01.607Z,1.06
2023-02-08T16:17:43.736Z,0.87
2023-02-08T16:20:30.144Z,0.74
2023-02-08T16:23:03.228Z,0.70
2023-02-08T16:25:43.225Z,0.83
2023-02-08T16:28:26.297Z,0.66
2023-02-08T16:30:54.296Z,0.62
2023-02-08T16:33:22.184Z,0.61
2023-02-08T16:35:50.229Z,0.56
2023-02-08T16:38:23.330Z,0.58
2023-02-08T16:40:52.552Z,0.52
2023-02-08T16:43:23.792Z,0.31
2023-02-08T16:46:24.437Z,0.41
2023-02-08T16:48:54.629Z,0.25
2023-02-08T16:51:24.832Z,0.29
2023-02-08T16:53:57.293Z,0.24
2023-02-08T16:56:25.465Z,0.34
2023-02-08T16:58:53.433Z,0.35
2023-02-08T17:01:24.242Z,0.23
2023-02-08T17:03:53.017Z,0.23
2023-02-08T17:06:30.449Z,0.26
2023-02-08T17:09:00.974Z,0.10
2023-02-08T17:11:29.452Z,0.12
2023-02-08T17:13:58.336Z,-0.03
2023-02-08T17:16:28.129Z,0.08
2023-02-08T17:18:56.727Z,0.02
2023-02-08T17:21:24.696Z,-0.05
2023-02-08T17:23:52.380Z,0.02
2023-02-08T17:26:24.149Z,-0.12
2023-02-08T17:28:51.837Z,-0.06
2023-02-08T17:31:20.131Z,-0.02
2023-02-08T17:33:50.205Z,-0.22
2023-02-08T17:36:18.469Z,-0.19
2023-02-08T17:38:48.287Z,-0.23
2023-02-08T17:41:18.098Z,-0.25
2023-02-08T17:43:47.726Z,-0.21
2023-02-08T17:46:18.048Z,-0.34
2023-02-08T17:48:48.120Z,-0.33
2023-02-08T17:51:17.860Z,-0.34
2023-02-08T17:53:46.143Z,-0.30
2023-02-08T17:56:16.130Z,-0.35
2023-02-08T17:58:43.959Z,-0.36
2023-02-08T18:01:17.793Z,-0.48
2023-02-08T18:03:45.888Z,-0.41
2023-02-08T18:06:14.376Z,-0.43
2023-02-08T18:08:42.331Z,-0.51
2023-02-08T18:11:12.869Z,-0.49
2023-02-08T18:13:40.738Z,-0.60
2023-02-08T18:16:09.957Z,-0.57
2023-02-08T18:18:39.611Z,-0.52
2023-02-08T18:21:12.138Z,-0.61
2023-02-08T18:23:40.373Z,-0.67
2023-02-08T18:26:11.246Z,-0.62
2023-02-08T18:28:40.769Z,-0.76
2023-02-08T18:31:14.492Z,-0.74
2023-02-08T18:33:44.884Z,-0.82
2023-02-08T18:36:13.820Z,-0.80
2023-02-08T18:38:45.508Z,-0.98
2023-02-08T18:41:15.330Z,-0.95
2023-02-08T18:43:44.180Z,-0.94
2023-02-08T18:46:15.072Z,-1.03
2023-02-08T18:48:44.844Z,-0.96
2023-02-08T18:51:16.254Z,-0.97
2023-02-08T18:53:44.061Z,-1.03
2023-02-08T18:56:13.666Z,-1.12
2023-02-08T18:58:41.836Z,-1.01
2023-02-08T19:01:12.295Z,-1.02
2023-02-08T19:03:40.477Z,-1.06
2023-02-08T19:06:11.861Z,-1.02
2023-02-08T19:08:40.311Z,-1.09
2023-02-08T19:11:16.062Z,-1.14
2023-02-08T19:13:44.102Z,-1.12
2023-02-08T19:16:12.682Z,-1.17
2023-02-08T19:18:40.791Z,-1.25
2023-02-08T19:21:12.015Z,-1.26
2023-02-08T19:23:39.855Z,-1.31
2023-02-08T19:26:10.040Z,-1.32
2023-02-08T19:28:37.897Z,-1.23
2023-02-08T19:31:08.575Z,-1.25
2023-02-08T19:33:36.509Z,-1.24
2023-02-08T19:36:09.715Z,-1.31
2023-02-08T19:38:37.875Z,-1.41
2023-02-08T19:41:06.755Z,-1.41
2023-02-08T19:43:35.584Z,-1.45
2023-02-08T19:46:03.465Z,-1.49
2023-02-08T19:48:32.503Z,-1.54
2023-02-08T19:51:01.475Z,-1.55
2023-02-08T19:53:30.870Z,-1.68
2023-02-08T19:55:59.925Z,-1.65
2023-02-08T19:58:28.892Z,-1.61
2023-02-08T20:00:56.873Z,-1.58
2023-02-08T20:03:25.200Z,-1.62
2023-02-08T20:05:54.937Z,-1.68
2023-02-08T20:08:25.871Z,-1.73
2023-02-08T20:10:56.681Z,-1.72
2023-02-08T20:13:25.265Z,-1.72
2023-02-08T20:15:59.654Z,-1.73
2023-02-08T20:18:27.428Z,-1.77
2023-02-08T20:21:02.172Z,-1.74
2023-02-08T20:23:30.452Z,-1.67
2023-02-08T20:26:08.798Z,-1.65
2023-02-08T20:28:37.410Z,-1.75
2023-02-08T20:31:08.620Z,-1.76
2023-02-08T20:33:38.095Z,-1.88
2023-02-08T20:36:09.457Z,-1.89
2023-02-08T20:38:38.358Z,-1.96
2023-02-08T20:41:10.031Z,-1.91
2023-02-08T20:43:41.253Z,-1.87
2023-02-08T20:46:11.524Z,-1.72
2023-02-08T20:48:40.955Z,-1.76
2023-02-08T20:51:11.157Z,-1.80
2023-02-08T20:53:42.199Z,-1.94
2023-02-08T20:56:13.617Z,-2.05
2023-02-08T20:58:41.834Z,-2.06
2023-02-08T21:01:10.170Z,-2.00
2023-02-08T21:03:38.034Z,-2.05
2023-02-08T21:06:14.471Z,-2.03
2023-02-08T21:08:47.911Z,-2.07
2023-02-08T21:11:17.638Z,-1.96
2023-02-08T21:13:48.035Z,-1.98
2023-02-08T21:16:17.783Z,-2.07
2023-02-08T21:18:47.162Z,-1.95
2023-02-08T21:21:18.423Z,-2.03
2023-02-08T21:23:46.670Z,-2.00
2023-02-08T21:26:18.514Z,-1.88
2023-02-08T21:28:48.764Z,-1.94
2023-02-08T21:31:19.729Z,-2.01
2023-02-08T21:33:47.799Z,-2.09
2023-02-08T21:36:19.484Z,-2.03
2023-02-08T21:38:48.170Z,-2.19
2023-02-08T21:41:20.441Z,-2.11
2023-02-08T21:43:51.078Z,-2.23
2023-02-08T21:46:19.544Z,-2.22
2023-02-08T21:49:20.842Z,-2.30
2023-02-08T21:52:08.713Z,-2.27
2023-02-08T21:54:44.329Z,-2.27
2023-02-08T21:57:17.823Z,-2.29
2023-02-08T21:59:48.469Z,-2.38
2023-02-08T22:02:23.756Z,-2.36
2023-02-08T22:04:52.171Z,-2.42
2023-02-08T22:07:20.111Z,-2.43
2023-02-08T22:09:48.151Z,-2.58
2023-02-08T22:12:22.944Z,-2.54
2023-02-08T22:14:51.200Z,-2.59
2023-02-08T22:17:20.828Z,-2.61
2023-02-08T22:19:49.583Z,-2.64
2023-02-08T22:22:19.000Z,-2.61
2023-02-08T22:24:48.605Z,-2.62
2023-02-08T22:27:18.043Z,-2.65
2023-02-08T22:29:47.379Z,-2.56
2023-02-08T22:32:17.117Z,-2.70
2023-02-08T22:34:45.062Z,-2.64
2023-02-08T22:37:13.042Z,-2.61
2023-02-08T22:39:43.417Z,-2.60
2023-02-08T22:42:15.843Z,-2.74
2023-02-08T22:44:45.674Z,-2.79
2023-02-08T22:47:14.427Z,-2.78
2023-02-08T22:49:42.294Z,-2.86
2023-02-08T22:52:12.236Z,-2.90
2023-02-08T22:54:40.035Z,-2.97
2023-02-08T22:57:09.662Z,-3.06
2023-02-08T22:59:38.625Z,-3.13
2023-02-08T23:02:10.440Z,-3.20
2023-02-08T23:04:39.015Z,-3.16
2023-02-08T23:07:07.512Z,-3.31
2023-02-08T23:09:35.284Z,-3.23
2023-02-08T23:12:03.138Z,-3.25
2023-02-08T23:14:30.924Z,-3.32
2023-02-08T23:16:58.741Z,-3.27
2023-02-08T23:19:28.072Z,-3.27
2023-02-08T23:21:59.366Z,-3.31
2023-02-08T23:24:27.445Z,-3.32
2023-02-08T23:26:55.241Z,-3.31
2023-02-08T23:29:22.949Z,-3.28
2023-02-08T23:31:50.910Z,-3.25
2023-02-08T23:34:19.162Z,-3.26
2023-02-08T23:36:48.542Z,-3.23
2023-02-08T23:39:16.250Z,-3.20
2023-02-08T23:41:43.981Z,-3.23
2023-02-08T23:44:12.202Z,-3.26
2023-02-08T23:46:40.057Z,-3.20
2023-02-08T23:49:07.851Z,-3.31
2023-02-08T23:51:35.567Z,-3.26
2023-02-08T23:54:04.760Z,-3.15
2023-02-08T23:56:32.920Z,-3.31
2023-02-08T23:59:00.855Z,-3.26
